sensor_id;sensor_type;location;lat;lon;timestamp;P1;durP1;ratioP1;P2;durP2;ratioP2
10045;SDS011;5063;50.878;4.742;2023-09-08T00:02:23;6.50;;;5.60;;
10045;SDS011;5063;50.878;4.742;2023-09-08T00:04:52;7.13;;;6.43;;
10045;SDS011;5063;50.878;4.742;2023-09-08T00:07:18;7.00;;;6.15;;
10045;SDS011;5063;50.878;4.742;2023-09-08T00:09:44;7.07;;;6.38;;
10045;SDS011;5063;50.878;4.742;2023-09-08T00:12:09;7.07;;;6.37;;
10045;SDS011;5063;50.878;4.742;2023-09-08T00:14:35;6.57;;;5.97;;
10045;SDS011;5063;50.878;4.742;2023-09-08T00:17:01;6.03;;;5.45;;
10045;SDS011;5063;50.878;4.742;2023-09-08T00:19:26;7.20;;;6.05;;
10045;SDS011;5063;50.878;4.742;2023-09-08T00:21:52;9.30;;;6.57;;
10045;SDS011;5063;50.878;4.742;2023-09-08T00:24:18;8.33;;;7.07;;
10045;SDS011;5063;50.878;4.742;2023-09-08T00:26:43;7.40;;;6.25;;
10045;SDS011;5063;50.878;4.742;2023-09-08T00:29:09;6.37;;;5.77;;
10045;SDS011;5063;50.878;4.742;2023-09-08T00:31:35;7.30;;;6.60;;
10045;SDS011;5063;50.878;4.742;2023-09-08T00:34:01;9.87;;;7.00;;
10045;SDS011;5063;50.878;4.742;2023-09-08T00:36:26;8.70;;;6.93;;
10045;SDS011;5063;50.878;4.742;2023-09-08T00:38:52;8.85;;;6.53;;
10045;SDS011;5063;50.878;4.742;2023-09-08T00:41:18;6.57;;;5.93;;
10045;SDS011;5063;50.878;4.742;2023-09-08T00:43:43;8.03;;;6.70;;
10045;SDS011;5063;50.878;4.742;2023-09-08T00:46:09;7.73;;;6.90;;
10045;SDS011;5063;50.878;4.742;2023-09-08T00:48:36;7.67;;;6.90;;
10045;SDS011;5063;50.878;4.742;2023-09-08T00:51:03;8.60;;;6.80;;
10045;SDS011;5063;50.878;4.742;2023-09-08T00:53:30;6.87;;;6.27;;
10045;SDS011;5063;50.878;4.742;2023-09-08T00:55:56;7.57;;;6.47;;
10045;SDS011;5063;50.878;4.742;2023-09-08T00:58:23;8.10;;;6.40;;
10045;SDS011;5063;50.878;4.742;2023-09-08T01:00:49;9.40;;;7.13;;
10045;SDS011;5063;50.878;4.742;2023-09-08T01:03:15;8.20;;;6.80;;
10045;SDS011;5063;50.878;4.742;2023-09-08T01:05:41;7.90;;;7.20;;
10045;SDS011;5063;50.878;4.742;2023-09-08T01:08:07;8.73;;;7.07;;
10045;SDS011;5063;50.878;4.742;2023-09-08T01:10:34;8.05;;;6.47;;
10045;SDS011;5063;50.878;4.742;2023-09-08T01:13:02;6.93;;;6.23;;
10045;SDS011;5063;50.878;4.742;2023-09-08T01:15:28;12.20;;;7.57;;
10045;SDS011;5063;50.878;4.742;2023-09-08T01:17:53;7.80;;;6.97;;
10045;SDS011;5063;50.878;4.742;2023-09-08T01:20:21;8.03;;;6.67;;
10045;SDS011;5063;50.878;4.742;2023-09-08T01:25:48;11.50;;;7.10;;
10045;SDS011;5063;50.878;4.742;2023-09-08T01:28:21;8.20;;;7.40;;
10045;SDS011;5063;50.878;4.742;2023-09-08T01:30:48;9.50;;;7.40;;
10045;SDS011;5063;50.878;4.742;2023-09-08T01:33:15;9.07;;;8.00;;
10045;SDS011;5063;50.878;4.742;2023-09-08T01:35:42;9.93;;;7.00;;
10045;SDS011;5063;50.878;4.742;2023-09-08T01:38:08;8.17;;;7.37;;
10045;SDS011;5063;50.878;4.742;2023-09-08T01:40:33;9.47;;;8.27;;
10045;SDS011;5063;50.878;4.742;2023-09-08T01:43:00;8.43;;;7.60;;
10045;SDS011;5063;50.878;4.742;2023-09-08T01:45:26;7.73;;;6.93;;
10045;SDS011;5063;50.878;4.742;2023-09-08T01:47:51;9.07;;;7.80;;
10045;SDS011;5063;50.878;4.742;2023-09-08T01:50:17;8.83;;;7.67;;
10045;SDS011;5063;50.878;4.742;2023-09-08T01:52:47;12.43;;;7.63;;
10045;SDS011;5063;50.878;4.742;2023-09-08T01:55:13;9.43;;;7.93;;
10045;SDS011;5063;50.878;4.742;2023-09-08T01:57:41;10.03;;;6.90;;
10045;SDS011;5063;50.878;4.742;2023-09-08T02:00:07;7.43;;;6.77;;
10045;SDS011;5063;50.878;4.742;2023-09-08T02:02:33;8.93;;;8.03;;
10045;SDS011;5063;50.878;4.742;2023-09-08T02:04:58;8.07;;;7.27;;
10045;SDS011;5063;50.878;4.742;2023-09-08T02:07:24;8.67;;;7.17;;
10045;SDS011;5063;50.878;4.742;2023-09-08T02:09:50;8.87;;;7.97;;
10045;SDS011;5063;50.878;4.742;2023-09-08T02:12:15;9.23;;;8.33;;
10045;SDS011;5063;50.878;4.742;2023-09-08T02:14:41;8.67;;;7.53;;
10045;SDS011;5063;50.878;4.742;2023-09-08T02:17:13;8.20;;;7.40;;
10045;SDS011;5063;50.878;4.742;2023-09-08T02:19:39;10.03;;;7.47;;
10045;SDS011;5063;50.878;4.742;2023-09-08T02:22:05;8.07;;;7.27;;
10045;SDS011;5063;50.878;4.742;2023-09-08T02:24:31;8.47;;;7.53;;
10045;SDS011;5063;50.878;4.742;2023-09-08T02:26:56;8.03;;;7.23;;
10045;SDS011;5063;50.878;4.742;2023-09-08T02:29:22;8.20;;;7.27;;
10045;SDS011;5063;50.878;4.742;2023-09-08T02:31:48;8.83;;;7.50;;
10045;SDS011;5063;50.878;4.742;2023-09-08T02:34:14;9.30;;;8.33;;
10045;SDS011;5063;50.878;4.742;2023-09-08T02:36:39;9.13;;;7.73;;
10045;SDS011;5063;50.878;4.742;2023-09-08T02:39:05;8.47;;;7.67;;
10045;SDS011;5063;50.878;4.742;2023-09-08T02:41:32;7.60;;;6.90;;
10045;SDS011;5063;50.878;4.742;2023-09-08T02:43:58;8.47;;;7.63;;
10045;SDS011;5063;50.878;4.742;2023-09-08T02:46:23;10.43;;;7.77;;
10045;SDS011;5063;50.878;4.742;2023-09-08T02:48:49;8.80;;;7.57;;
10045;SDS011;5063;50.878;4.742;2023-09-08T02:51:15;8.73;;;7.93;;
10045;SDS011;5063;50.878;4.742;2023-09-08T02:53:41;9.73;;;8.53;;
10045;SDS011;5063;50.878;4.742;2023-09-08T02:56:06;9.13;;;8.03;;
10045;SDS011;5063;50.878;4.742;2023-09-08T02:58:34;8.20;;;7.40;;
10045;SDS011;5063;50.878;4.742;2023-09-08T03:01:10;7.70;;;7.00;;
10045;SDS011;5063;50.878;4.742;2023-09-08T03:03:40;8.47;;;7.43;;
10045;SDS011;5063;50.878;4.742;2023-09-08T03:06:07;11.10;;;7.97;;
10045;SDS011;5063;50.878;4.742;2023-09-08T03:08:34;8.43;;;7.53;;
10045;SDS011;5063;50.878;4.742;2023-09-08T03:11:02;7.80;;;7.03;;
10045;SDS011;5063;50.878;4.742;2023-09-08T03:13:28;8.77;;;6.93;;
10045;SDS011;5063;50.878;4.742;2023-09-08T03:15:54;9.60;;;7.50;;
10045;SDS011;5063;50.878;4.742;2023-09-08T03:18:21;9.03;;;8.13;;
10045;SDS011;5063;50.878;4.742;2023-09-08T03:20:48;8.60;;;7.20;;
10045;SDS011;5063;50.878;4.742;2023-09-08T03:23:15;8.57;;;7.77;;
10045;SDS011;5063;50.878;4.742;2023-09-08T03:25:40;9.10;;;8.03;;
10045;SDS011;5063;50.878;4.742;2023-09-08T03:28:06;9.60;;;8.70;;
10045;SDS011;5063;50.878;4.742;2023-09-08T03:30:32;11.60;;;9.30;;
10045;SDS011;5063;50.878;4.742;2023-09-08T03:32:58;10.77;;;8.97;;
10045;SDS011;5063;50.878;4.742;2023-09-08T03:35:23;10.10;;;8.97;;
10045;SDS011;5063;50.878;4.742;2023-09-08T03:37:49;10.47;;;9.47;;
10045;SDS011;5063;50.878;4.742;2023-09-08T03:40:15;10.10;;;9.13;;
10045;SDS011;5063;50.878;4.742;2023-09-08T03:42:40;8.93;;;8.03;;
10045;SDS011;5063;50.878;4.742;2023-09-08T03:45:08;9.23;;;8.20;;
10045;SDS011;5063;50.878;4.742;2023-09-08T03:47:34;10.27;;;9.23;;
10045;SDS011;5063;50.878;4.742;2023-09-08T03:50:00;10.00;;;8.87;;
10045;SDS011;5063;50.878;4.742;2023-09-08T03:52:26;9.67;;;8.70;;
10045;SDS011;5063;50.878;4.742;2023-09-08T03:54:51;10.33;;;8.33;;
10045;SDS011;5063;50.878;4.742;2023-09-08T03:57:17;13.33;;;8.97;;
10045;SDS011;5063;50.878;4.742;2023-09-08T03:59:43;9.20;;;8.40;;
10045;SDS011;5063;50.878;4.742;2023-09-08T04:02:08;9.00;;;8.20;;
10045;SDS011;5063;50.878;4.742;2023-09-08T04:04:34;9.47;;;8.47;;
10045;SDS011;5063;50.878;4.742;2023-09-08T04:07:00;10.90;;;8.77;;
10045;SDS011;5063;50.878;4.742;2023-09-08T04:09:25;9.37;;;8.47;;
10045;SDS011;5063;50.878;4.742;2023-09-08T04:11:53;9.80;;;8.90;;
10045;SDS011;5063;50.878;4.742;2023-09-08T04:14:20;9.90;;;8.63;;
10045;SDS011;5063;50.878;4.742;2023-09-08T04:16:46;11.10;;;8.73;;
10045;SDS011;5063;50.878;4.742;2023-09-08T04:19:11;8.60;;;7.63;;
10045;SDS011;5063;50.878;4.742;2023-09-08T04:21:37;9.53;;;8.63;;
10045;SDS011;5063;50.878;4.742;2023-09-08T04:24:03;9.57;;;8.67;;
10045;SDS011;5063;50.878;4.742;2023-09-08T04:26:30;9.47;;;8.27;;
10045;SDS011;5063;50.878;4.742;2023-09-08T04:28:56;10.00;;;8.87;;
10045;SDS011;5063;50.878;4.742;2023-09-08T04:31:21;11.47;;;9.60;;
10045;SDS011;5063;50.878;4.742;2023-09-08T04:33:47;10.07;;;9.00;;
10045;SDS011;5063;50.878;4.742;2023-09-08T04:36:13;8.87;;;8.07;;
10045;SDS011;5063;50.878;4.742;2023-09-08T04:38:38;10.27;;;8.43;;
10045;SDS011;5063;50.878;4.742;2023-09-08T04:41:06;9.90;;;8.97;;
10045;SDS011;5063;50.878;4.742;2023-09-08T04:43:32;8.20;;;7.40;;
10045;SDS011;5063;50.878;4.742;2023-09-08T04:45:58;10.17;;;8.17;;
10045;SDS011;5063;50.878;4.742;2023-09-08T04:48:23;9.13;;;8.33;;
10045;SDS011;5063;50.878;4.742;2023-09-08T04:50:49;9.97;;;8.97;;
10045;SDS011;5063;50.878;4.742;2023-09-08T04:53:16;9.93;;;8.37;;
10045;SDS011;5063;50.878;4.742;2023-09-08T04:55:42;9.53;;;8.60;;
10045;SDS011;5063;50.878;4.742;2023-09-08T04:58:08;9.23;;;8.33;;
10045;SDS011;5063;50.878;4.742;2023-09-08T05:00:34;12.33;;;9.40;;
10045;SDS011;5063;50.878;4.742;2023-09-08T05:02:59;9.87;;;8.87;;
10045;SDS011;5063;50.878;4.742;2023-09-08T05:05:25;10.20;;;8.97;;
10045;SDS011;5063;50.878;4.742;2023-09-08T05:07:51;9.97;;;8.80;;
10045;SDS011;5063;50.878;4.742;2023-09-08T05:10:21;9.77;;;8.67;;
10045;SDS011;5063;50.878;4.742;2023-09-08T05:12:50;10.30;;;9.30;;
10045;SDS011;5063;50.878;4.742;2023-09-08T05:15:16;10.17;;;9.27;;
10045;SDS011;5063;50.878;4.742;2023-09-08T05:17:42;9.87;;;8.87;;
10045;SDS011;5063;50.878;4.742;2023-09-08T05:20:08;10.70;;;9.07;;
10045;SDS011;5063;50.878;4.742;2023-09-08T05:22:34;10.97;;;9.70;;
10045;SDS011;5063;50.878;4.742;2023-09-08T05:25:01;10.40;;;9.30;;
10045;SDS011;5063;50.878;4.742;2023-09-08T05:27:27;10.50;;;9.50;;
10045;SDS011;5063;50.878;4.742;2023-09-08T05:29:53;10.97;;;9.57;;
10045;SDS011;5063;50.878;4.742;2023-09-08T05:32:19;10.40;;;9.40;;
10045;SDS011;5063;50.878;4.742;2023-09-08T05:34:45;10.10;;;9.07;;
10045;SDS011;5063;50.878;4.742;2023-09-08T05:37:10;11.30;;;8.20;;
10045;SDS011;5063;50.878;4.742;2023-09-08T05:39:36;9.53;;;8.63;;
10045;SDS011;5063;50.878;4.742;2023-09-08T05:42:02;12.67;;;9.07;;
10045;SDS011;5063;50.878;4.742;2023-09-08T05:44:28;9.87;;;8.83;;
10045;SDS011;5063;50.878;4.742;2023-09-08T05:46:53;10.83;;;9.23;;
10045;SDS011;5063;50.878;4.742;2023-09-08T05:49:19;9.37;;;8.47;;
10045;SDS011;5063;50.878;4.742;2023-09-08T05:51:45;10.77;;;9.77;;
10045;SDS011;5063;50.878;4.742;2023-09-08T05:54:10;14.13;;;10.43;;
10045;SDS011;5063;50.878;4.742;2023-09-08T05:56:36;10.67;;;9.57;;
10045;SDS011;5063;50.878;4.742;2023-09-08T05:59:03;10.03;;;9.10;;
10045;SDS011;5063;50.878;4.742;2023-09-08T06:01:29;11.03;;;9.83;;
10045;SDS011;5063;50.878;4.742;2023-09-08T06:03:56;11.23;;;9.53;;
10045;SDS011;5063;50.878;4.742;2023-09-08T06:06:21;10.87;;;9.03;;
10045;SDS011;5063;50.878;4.742;2023-09-08T06:08:47;9.77;;;8.83;;
10045;SDS011;5063;50.878;4.742;2023-09-08T06:11:13;10.70;;;9.27;;
10045;SDS011;5063;50.878;4.742;2023-09-08T06:13:39;10.67;;;9.67;;
10045;SDS011;5063;50.878;4.742;2023-09-08T06:16:05;10.63;;;9.53;;
10045;SDS011;5063;50.878;4.742;2023-09-08T06:18:31;10.50;;;9.07;;
10045;SDS011;5063;50.878;4.742;2023-09-08T06:20:56;10.53;;;9.60;;
10045;SDS011;5063;50.878;4.742;2023-09-08T06:23:22;10.40;;;9.50;;
10045;SDS011;5063;50.878;4.742;2023-09-08T06:25:48;12.60;;;10.43;;
10045;SDS011;5063;50.878;4.742;2023-09-08T06:28:14;10.53;;;9.43;;
10045;SDS011;5063;50.878;4.742;2023-09-08T06:30:40;12.73;;;11.50;;
10045;SDS011;5063;50.878;4.742;2023-09-08T06:33:10;12.57;;;11.37;;
10045;SDS011;5063;50.878;4.742;2023-09-08T06:35:35;12.25;;;10.95;;
10045;SDS011;5063;50.878;4.742;2023-09-08T06:38:01;13.00;;;11.80;;
10045;SDS011;5063;50.878;4.742;2023-09-08T06:40:29;14.52;;;10.77;;
10045;SDS011;5063;50.878;4.742;2023-09-08T06:42:55;10.88;;;9.77;;
10045;SDS011;5063;50.878;4.742;2023-09-08T06:45:22;10.45;;;9.00;;
10045;SDS011;5063;50.878;4.742;2023-09-08T06:47:47;9.93;;;8.95;;
10045;SDS011;5063;50.878;4.742;2023-09-08T06:50:15;10.82;;;9.05;;
10045;SDS011;5063;50.878;4.742;2023-09-08T06:52:41;8.35;;;7.43;;
10045;SDS011;5063;50.878;4.742;2023-09-08T06:55:07;8.05;;;7.25;;
10045;SDS011;5063;50.878;4.742;2023-09-08T06:57:32;10.18;;;6.75;;
10045;SDS011;5063;50.878;4.742;2023-09-08T06:59:58;8.18;;;6.15;;
10045;SDS011;5063;50.878;4.742;2023-09-08T07:02:24;7.85;;;5.60;;
10045;SDS011;5063;50.878;4.742;2023-09-08T07:04:49;6.55;;;5.78;;
10045;SDS011;5063;50.878;4.742;2023-09-08T07:07:16;6.95;;;5.68;;
10045;SDS011;5063;50.878;4.742;2023-09-08T07:09:43;7.72;;;5.55;;
10045;SDS011;5063;50.878;4.742;2023-09-08T07:12:08;6.45;;;5.85;;
10045;SDS011;5063;50.878;4.742;2023-09-08T07:14:34;5.88;;;5.30;;
10045;SDS011;5063;50.878;4.742;2023-09-08T07:17:00;8.00;;;5.72;;
10045;SDS011;5063;50.878;4.742;2023-09-08T07:19:26;8.63;;;6.43;;
10045;SDS011;5063;50.878;4.742;2023-09-08T07:21:52;6.15;;;5.65;;
10045;SDS011;5063;50.878;4.742;2023-09-08T07:24:18;5.97;;;5.47;;
10045;SDS011;5063;50.878;4.742;2023-09-08T07:26:43;6.30;;;5.70;;
10045;SDS011;5063;50.878;4.742;2023-09-08T07:29:09;5.90;;;5.35;;
10045;SDS011;5063;50.878;4.742;2023-09-08T07:31:35;7.43;;;5.70;;
10045;SDS011;5063;50.878;4.742;2023-09-08T07:34:01;8.43;;;6.35;;
10045;SDS011;5063;50.878;4.742;2023-09-08T07:36:26;6.28;;;5.68;;
10045;SDS011;5063;50.878;4.742;2023-09-08T07:38:52;9.35;;;5.75;;
10045;SDS011;5063;50.878;4.742;2023-09-08T07:41:18;6.68;;;5.97;;
10045;SDS011;5063;50.878;4.742;2023-09-08T07:43:43;7.80;;;6.05;;
10045;SDS011;5063;50.878;4.742;2023-09-08T07:46:10;7.50;;;6.00;;
10045;SDS011;5063;50.878;4.742;2023-09-08T07:48:36;7.68;;;5.80;;
10045;SDS011;5063;50.878;4.742;2023-09-08T07:51:02;7.65;;;5.55;;
10045;SDS011;5063;50.878;4.742;2023-09-08T07:53:28;5.80;;;5.20;;
10045;SDS011;5063;50.878;4.742;2023-09-08T07:55:53;6.15;;;5.07;;
10045;SDS011;5063;50.878;4.742;2023-09-08T07:58:19;9.18;;;5.55;;
10045;SDS011;5063;50.878;4.742;2023-09-08T08:00:45;7.53;;;5.15;;
10045;SDS011;5063;50.878;4.742;2023-09-08T08:03:10;7.78;;;5.50;;
10045;SDS011;5063;50.878;4.742;2023-09-08T08:05:36;6.80;;;5.70;;
10045;SDS011;5063;50.878;4.742;2023-09-08T08:08:02;6.05;;;5.25;;
10045;SDS011;5063;50.878;4.742;2023-09-08T08:10:28;8.02;;;5.55;;
10045;SDS011;5063;50.878;4.742;2023-09-08T08:12:54;6.88;;;5.65;;
10045;SDS011;5063;50.878;4.742;2023-09-08T08:15:20;6.25;;;5.55;;
10045;SDS011;5063;50.878;4.742;2023-09-08T08:17:48;5.55;;;4.65;;
10045;SDS011;5063;50.878;4.742;2023-09-08T08:20:14;6.43;;;5.07;;
10045;SDS011;5063;50.878;4.742;2023-09-08T08:22:43;5.70;;;4.90;;
10045;SDS011;5063;50.878;4.742;2023-09-08T08:25:12;9.18;;;5.05;;
10045;SDS011;5063;50.878;4.742;2023-09-08T08:27:38;5.40;;;4.88;;
10045;SDS011;5063;50.878;4.742;2023-09-08T08:30:04;8.00;;;5.22;;
10045;SDS011;5063;50.878;4.742;2023-09-08T08:32:31;7.28;;;5.38;;
10045;SDS011;5063;50.878;4.742;2023-09-08T08:34:58;7.63;;;5.20;;
10045;SDS011;5063;50.878;4.742;2023-09-08T08:37:23;9.40;;;5.28;;
10045;SDS011;5063;50.878;4.742;2023-09-08T08:39:49;4.60;;;4.20;;
10045;SDS011;5063;50.878;4.742;2023-09-08T08:42:15;6.18;;;5.00;;
10045;SDS011;5063;50.878;4.742;2023-09-08T08:44:41;9.10;;;4.97;;
10045;SDS011;5063;50.878;4.742;2023-09-08T08:47:07;6.78;;;5.28;;
10045;SDS011;5063;50.878;4.742;2023-09-08T08:49:35;10.55;;;5.10;;
10045;SDS011;5063;50.878;4.742;2023-09-08T08:52:01;5.60;;;4.72;;
10045;SDS011;5063;50.878;4.742;2023-09-08T08:54:33;7.38;;;5.45;;
10045;SDS011;5063;50.878;4.742;2023-09-08T08:57:02;6.47;;;5.18;;
10045;SDS011;5063;50.878;4.742;2023-09-08T08:59:29;7.57;;;4.70;;
10045;SDS011;5063;50.878;4.742;2023-09-08T09:01:56;6.68;;;5.57;;
10045;SDS011;5063;50.878;4.742;2023-09-08T09:04:26;4.95;;;4.45;;
10045;SDS011;5063;50.878;4.742;2023-09-08T09:06:53;5.03;;;4.53;;
10045;SDS011;5063;50.878;4.742;2023-09-08T09:09:19;8.32;;;4.95;;
10045;SDS011;5063;50.878;4.742;2023-09-08T09:11:45;5.85;;;5.22;;
10045;SDS011;5063;50.878;4.742;2023-09-08T09:14:11;5.45;;;4.95;;
10045;SDS011;5063;50.878;4.742;2023-09-08T09:16:43;7.90;;;5.43;;
10045;SDS011;5063;50.878;4.742;2023-09-08T09:19:09;7.00;;;5.88;;
10045;SDS011;5063;50.878;4.742;2023-09-08T09:21:50;6.88;;;5.40;;
10045;SDS011;5063;50.878;4.742;2023-09-08T09:24:32;9.10;;;6.22;;
10045;SDS011;5063;50.878;4.742;2023-09-08T09:27:03;8.43;;;6.45;;
10045;SDS011;5063;50.878;4.742;2023-09-08T09:29:33;7.38;;;5.28;;
10045;SDS011;5063;50.878;4.742;2023-09-08T09:32:04;6.60;;;5.53;;
10045;SDS011;5063;50.878;4.742;2023-09-08T09:34:31;7.93;;;5.70;;
10045;SDS011;5063;50.878;4.742;2023-09-08T09:36:57;8.55;;;5.55;;
10045;SDS011;5063;50.878;4.742;2023-09-08T09:39:23;6.13;;;5.53;;
10045;SDS011;5063;50.878;4.742;2023-09-08T09:41:53;8.60;;;5.88;;
10045;SDS011;5063;50.878;4.742;2023-09-08T09:44:20;9.27;;;5.72;;
10045;SDS011;5063;50.878;4.742;2023-09-08T09:46:47;6.03;;;5.38;;
10045;SDS011;5063;50.878;4.742;2023-09-08T09:49:13;11.18;;;5.95;;
10045;SDS011;5063;50.878;4.742;2023-09-08T09:51:43;11.60;;;5.85;;
10045;SDS011;5063;50.878;4.742;2023-09-08T09:54:09;8.18;;;5.55;;
10045;SDS011;5063;50.878;4.742;2023-09-08T09:56:37;6.85;;;5.90;;
10045;SDS011;5063;50.878;4.742;2023-09-08T09:59:03;7.15;;;5.47;;
10045;SDS011;5063;50.878;4.742;2023-09-08T10:01:30;6.13;;;4.95;;
10045;SDS011;5063;50.878;4.742;2023-09-08T10:03:57;6.25;;;5.65;;
10045;SDS011;5063;50.878;4.742;2023-09-08T10:06:23;6.72;;;5.53;;
10045;SDS011;5063;50.878;4.742;2023-09-08T10:08:51;6.13;;;5.53;;
10045;SDS011;5063;50.878;4.742;2023-09-08T10:11:19;6.80;;;6.13;;
10045;SDS011;5063;50.878;4.742;2023-09-08T10:13:50;5.90;;;5.40;;
10045;SDS011;5063;50.878;4.742;2023-09-08T10:16:19;6.38;;;5.68;;
10045;SDS011;5063;50.878;4.742;2023-09-08T10:18:47;8.13;;;6.13;;
10045;SDS011;5063;50.878;4.742;2023-09-08T10:21:14;8.30;;;5.57;;
10045;SDS011;5063;50.878;4.742;2023-09-08T10:23:44;6.68;;;5.50;;
10045;SDS011;5063;50.878;4.742;2023-09-08T10:26:19;5.93;;;5.22;;
10045;SDS011;5063;50.878;4.742;2023-09-08T10:28:50;6.95;;;5.18;;
10045;SDS011;5063;50.878;4.742;2023-09-08T10:31:21;5.60;;;5.10;;
10045;SDS011;5063;50.878;4.742;2023-09-08T10:33:48;6.53;;;5.20;;
10045;SDS011;5063;50.878;4.742;2023-09-08T10:36:14;7.82;;;4.93;;
10045;SDS011;5063;50.878;4.742;2023-09-08T10:38:40;6.00;;;5.10;;
10045;SDS011;5063;50.878;4.742;2023-09-08T10:43:44;8.40;;;5.13;;
10045;SDS011;5063;50.878;4.742;2023-09-08T10:46:37;5.72;;;4.60;;
10045;SDS011;5063;50.878;4.742;2023-09-08T10:49:04;6.68;;;5.05;;
10045;SDS011;5063;50.878;4.742;2023-09-08T10:51:35;6.80;;;5.10;;
10045;SDS011;5063;50.878;4.742;2023-09-08T10:54:01;5.80;;;5.25;;
10045;SDS011;5063;50.878;4.742;2023-09-08T10:56:53;12.23;;;5.53;;
10045;SDS011;5063;50.878;4.742;2023-09-08T10:59:18;6.88;;;5.10;;
10045;SDS011;5063;50.878;4.742;2023-09-08T11:01:44;6.07;;;5.28;;
10045;SDS011;5063;50.878;4.742;2023-09-08T11:04:12;6.72;;;5.05;;
10045;SDS011;5063;50.878;4.742;2023-09-08T11:06:43;7.85;;;4.97;;
10045;SDS011;5063;50.878;4.742;2023-09-08T11:09:09;6.13;;;4.70;;
10045;SDS011;5063;50.878;4.742;2023-09-08T11:11:35;6.93;;;5.13;;
10045;SDS011;5063;50.878;4.742;2023-09-08T11:14:01;5.97;;;4.95;;
10045;SDS011;5063;50.878;4.742;2023-09-08T11:16:28;5.32;;;4.38;;
10045;SDS011;5063;50.878;4.742;2023-09-08T11:18:56;4.68;;;4.20;;
10045;SDS011;5063;50.878;4.742;2023-09-08T11:21:22;5.90;;;4.70;;
10045;SDS011;5063;50.878;4.742;2023-09-08T11:23:48;7.43;;;4.82;;
10045;SDS011;5063;50.878;4.742;2023-09-08T11:26:14;5.15;;;4.75;;
10045;SDS011;5063;50.878;4.742;2023-09-08T11:28:40;5.85;;;5.15;;
10045;SDS011;5063;50.878;4.742;2023-09-08T11:31:07;6.63;;;4.68;;
10045;SDS011;5063;50.878;4.742;2023-09-08T11:33:33;8.13;;;5.22;;
10045;SDS011;5063;50.878;4.742;2023-09-08T11:36:10;7.25;;;4.47;;
10045;SDS011;5063;50.878;4.742;2023-09-08T11:38:39;7.05;;;4.40;;
10045;SDS011;5063;50.878;4.742;2023-09-08T11:41:06;5.28;;;4.78;;
10045;SDS011;5063;50.878;4.742;2023-09-08T11:43:32;6.60;;;4.93;;
10045;SDS011;5063;50.878;4.742;2023-09-08T11:46:00;5.75;;;4.63;;
10045;SDS011;5063;50.878;4.742;2023-09-08T11:48:26;5.22;;;4.22;;
10045;SDS011;5063;50.878;4.742;2023-09-08T11:50:54;4.53;;;3.45;;
10045;SDS011;5063;50.878;4.742;2023-09-08T11:53:20;3.83;;;3.40;;
10045;SDS011;5063;50.878;4.742;2023-09-08T11:55:47;3.97;;;3.22;;
10045;SDS011;5063;50.878;4.742;2023-09-08T11:58:14;3.65;;;3.05;;
10045;SDS011;5063;50.878;4.742;2023-09-08T12:00:40;5.32;;;3.42;;
10045;SDS011;5063;50.878;4.742;2023-09-08T12:03:12;4.85;;;3.58;;
10045;SDS011;5063;50.878;4.742;2023-09-08T12:05:40;4.20;;;3.80;;
10045;SDS011;5063;50.878;4.742;2023-09-08T12:08:07;4.63;;;3.03;;
10045;SDS011;5063;50.878;4.742;2023-09-08T12:10:42;4.65;;;3.47;;
10045;SDS011;5063;50.878;4.742;2023-09-08T12:13:08;7.88;;;3.83;;
10045;SDS011;5063;50.878;4.742;2023-09-08T12:15:38;5.00;;;4.20;;
10045;SDS011;5063;50.878;4.742;2023-09-08T12:18:06;7.30;;;3.97;;
10045;SDS011;5063;50.878;4.742;2023-09-08T12:20:34;4.38;;;3.63;;
10045;SDS011;5063;50.878;4.742;2023-09-08T12:23:02;6.57;;;4.35;;
10045;SDS011;5063;50.878;4.742;2023-09-08T12:25:29;4.82;;;4.32;;
10045;SDS011;5063;50.878;4.742;2023-09-08T12:27:59;5.40;;;4.00;;
10045;SDS011;5063;50.878;4.742;2023-09-08T12:30:26;6.78;;;4.47;;
10045;SDS011;5063;50.878;4.742;2023-09-08T12:32:58;8.10;;;4.35;;
10045;SDS011;5063;50.878;4.742;2023-09-08T12:35:25;8.38;;;5.00;;
10045;SDS011;5063;50.878;4.742;2023-09-08T12:40:24;8.43;;;4.57;;
10045;SDS011;5063;50.878;4.742;2023-09-08T12:42:51;6.78;;;4.35;;
10045;SDS011;5063;50.878;4.742;2023-09-08T12:45:17;8.73;;;4.40;;
10045;SDS011;5063;50.878;4.742;2023-09-08T12:47:43;9.10;;;4.43;;
10045;SDS011;5063;50.878;4.742;2023-09-08T12:50:09;8.68;;;4.68;;
10045;SDS011;5063;50.878;4.742;2023-09-08T12:52:35;4.35;;;3.95;;
10045;SDS011;5063;50.878;4.742;2023-09-08T12:55:01;6.57;;;4.55;;
10045;SDS011;5063;50.878;4.742;2023-09-08T12:57:26;5.40;;;4.32;;
10045;SDS011;5063;50.878;4.742;2023-09-08T12:59:52;12.45;;;4.60;;
10045;SDS011;5063;50.878;4.742;2023-09-08T13:02:18;9.80;;;4.40;;
10045;SDS011;5063;50.878;4.742;2023-09-08T13:04:44;4.90;;;4.22;;
10045;SDS011;5063;50.878;4.742;2023-09-08T13:07:14;5.65;;;4.20;;
10045;SDS011;5063;50.878;4.742;2023-09-08T13:09:40;7.15;;;4.55;;
10045;SDS011;5063;50.878;4.742;2023-09-08T13:12:05;9.70;;;4.65;;
10045;SDS011;5063;50.878;4.742;2023-09-08T13:14:31;6.20;;;4.22;;
10045;SDS011;5063;50.878;4.742;2023-09-08T13:16:57;6.45;;;4.10;;
10045;SDS011;5063;50.878;4.742;2023-09-08T13:19:23;9.43;;;4.40;;
10045;SDS011;5063;50.878;4.742;2023-09-08T13:21:48;8.73;;;4.32;;
10045;SDS011;5063;50.878;4.742;2023-09-08T13:24:14;5.20;;;4.45;;
10045;SDS011;5063;50.878;4.742;2023-09-08T13:26:39;4.57;;;4.15;;
10045;SDS011;5063;50.878;4.742;2023-09-08T13:29:05;9.60;;;4.60;;
10045;SDS011;5063;50.878;4.742;2023-09-08T13:31:31;5.45;;;4.22;;
10045;SDS011;5063;50.878;4.742;2023-09-08T13:33:56;6.72;;;4.72;;
10045;SDS011;5063;50.878;4.742;2023-09-08T13:36:22;5.43;;;4.18;;
10045;SDS011;5063;50.878;4.742;2023-09-08T13:38:48;7.22;;;3.85;;
10045;SDS011;5063;50.878;4.742;2023-09-08T13:41:13;6.68;;;3.85;;
10045;SDS011;5063;50.878;4.742;2023-09-08T13:43:39;4.97;;;3.90;;
10045;SDS011;5063;50.878;4.742;2023-09-08T13:46:05;9.02;;;4.15;;
10045;SDS011;5063;50.878;4.742;2023-09-08T13:48:30;6.88;;;3.63;;
10045;SDS011;5063;50.878;4.742;2023-09-08T13:51:00;4.40;;;3.80;;
10045;SDS011;5063;50.878;4.742;2023-09-08T13:53:27;6.85;;;3.88;;
10045;SDS011;5063;50.878;4.742;2023-09-08T13:55:54;7.53;;;3.92;;
10045;SDS011;5063;50.878;4.742;2023-09-08T13:58:19;4.38;;;3.50;;
10045;SDS011;5063;50.878;4.742;2023-09-08T14:00:45;8.02;;;3.50;;
10045;SDS011;5063;50.878;4.742;2023-09-08T14:03:14;6.95;;;3.85;;
10045;SDS011;5063;50.878;4.742;2023-09-08T14:05:40;5.18;;;4.13;;
10045;SDS011;5063;50.878;4.742;2023-09-08T14:08:05;6.63;;;3.78;;
10045;SDS011;5063;50.878;4.742;2023-09-08T14:10:31;6.47;;;3.50;;
10045;SDS011;5063;50.878;4.742;2023-09-08T14:12:57;7.95;;;3.90;;
10045;SDS011;5063;50.878;4.742;2023-09-08T14:15:22;6.65;;;4.03;;
10045;SDS011;5063;50.878;4.742;2023-09-08T14:17:48;5.65;;;3.78;;
10045;SDS011;5063;50.878;4.742;2023-09-08T14:20:14;8.10;;;3.95;;
10045;SDS011;5063;50.878;4.742;2023-09-08T14:22:40;8.52;;;4.15;;
10045;SDS011;5063;50.878;4.742;2023-09-08T14:25:06;10.15;;;4.13;;
10045;SDS011;5063;50.878;4.742;2023-09-08T14:27:32;8.95;;;4.40;;
10045;SDS011;5063;50.878;4.742;2023-09-08T14:29:58;11.10;;;4.10;;
10045;SDS011;5063;50.878;4.742;2023-09-08T14:32:24;6.57;;;4.07;;
10045;SDS011;5063;50.878;4.742;2023-09-08T14:34:50;7.35;;;4.30;;
10045;SDS011;5063;50.878;4.742;2023-09-08T14:37:15;8.88;;;4.18;;
10045;SDS011;5063;50.878;4.742;2023-09-08T14:39:41;8.35;;;3.65;;
10045;SDS011;5063;50.878;4.742;2023-09-08T14:42:07;8.73;;;4.50;;
10045;SDS011;5063;50.878;4.742;2023-09-08T14:44:34;6.70;;;4.43;;
10045;SDS011;5063;50.878;4.742;2023-09-08T14:47:00;11.10;;;3.88;;
10045;SDS011;5063;50.878;4.742;2023-09-08T14:49:26;5.40;;;4.28;;
10045;SDS011;5063;50.878;4.742;2023-09-08T14:51:51;6.53;;;4.15;;
10045;SDS011;5063;50.878;4.742;2023-09-08T14:54:17;10.55;;;5.07;;
10045;SDS011;5063;50.878;4.742;2023-09-08T14:56:43;10.23;;;3.90;;
10045;SDS011;5063;50.878;4.742;2023-09-08T14:59:08;13.30;;;4.55;;
10045;SDS011;5063;50.878;4.742;2023-09-08T15:01:35;7.70;;;4.47;;
10045;SDS011;5063;50.878;4.742;2023-09-08T15:04:01;9.90;;;4.35;;